Time;durP1;ratioP1;P1;durP2;ratioP2;P2;SDS_P1;SDS_P2;PMS_P1;PMS_P2;Temp;Humidity;BMP_temperature;BMP_pressure;BME280_temperature;BME280_humidity;BME280_pressure;Samples;Min_cycle;Max_cycle;Signal;HPM_P1;HPM_P2
2023/09/03 00:01:33;;;;;;;10.48;5.90;;;13.60;99.90;;;12.70;93.26;101855.25;4973462;28;20062;-75
2023/09/03 00:03:59;;;;;;;10.75;6.40;;;13.70;99.90;;;12.72;93.53;101856.06;4973894;28;20050;-75
2023/09/03 00:06:25;;;;;;;10.05;6.22;;;13.70;99.90;;;12.75;94.14;101852.44;4976114;28;20034;-74
2023/09/03 00:08:50;;;;;;;12.38;6.55;;;13.70;99.90;;;12.77;94.49;101847.97;4974722;28;20080;-75
2023/09/03 00:11:16;;;;;;;8.05;5.80;;;13.70;99.90;;;12.80;93.47;101842.53;4956522;28;20066;-74
2023/09/03 00:13:45;;;;;;;8.73;6.18;;;13.70;99.90;;;12.83;93.48;101853.00;4990764;28;20150;-75
2023/09/03 00:16:11;;;;;;;10.15;6.28;;;13.80;99.90;;;12.86;93.46;101852.88;4973255;28;20113;-75
2023/09/03 00:18:37;;;;;;;12.57;7.43;;;13.70;99.90;;;12.87;93.10;101859.03;4975829;28;20026;-75
2023/09/03 00:21:05;;;;;;;10.77;6.93;;;13.80;99.90;;;12.87;93.48;101859.03;4973273;28;20416;-75
2023/09/03 00:23:32;;;;;;;9.55;6.43;;;13.80;99.90;;;12.86;93.78;101863.47;4991169;28;20444;-75
2023/09/03 00:25:59;;;;;;;11.98;6.97;;;13.80;99.90;;;12.88;93.94;101858.13;4973522;28;20060;-75
2023/09/03 00:28:27;;;;;;;10.88;6.68;;;13.80;99.90;;;12.87;93.51;101854.63;4958651;28;20074;-75
2023/09/03 00:31:05;;;;;;;16.48;7.15;;;13.80;99.90;;;12.86;93.78;101850.25;4974818;28;20763;-74
2023/09/03 00:33:31;;;;;;;10.05;6.35;;;13.80;99.90;;;12.82;94.08;101864.50;4974396;28;20480;-75
2023/09/03 00:36:00;;;;;;;12.27;5.50;;;13.80;99.90;;;12.79;93.33;101846.13;4990077;28;20036;-75
2023/09/03 00:38:25;;;;;;;10.23;5.43;;;13.80;99.90;;;12.79;93.38;101853.19;4973612;28;20381;-75
2023/09/03 00:40:51;;;;;;;11.05;5.95;;;13.70;99.90;;;12.77;93.22;101847.97;4964408;28;20041;-75
2023/09/03 00:43:17;;;;;;;10.35;5.65;;;13.70;99.90;;;12.73;93.60;101860.41;4989786;28;20034;-75
2023/09/03 00:45:45;;;;;;;9.85;5.63;;;13.70;99.90;;;12.72;93.58;101871.03;4955633;28;20574;-75
2023/09/03 00:48:15;;;;;;;8.40;6.22;;;13.70;99.90;;;12.70;93.93;101872.91;4972329;28;20481;-75
2023/09/03 00:50:42;;;;;;;8.63;5.72;;;13.70;99.90;;;12.69;94.09;101879.09;4972804;28;20038;-75
2023/09/03 00:53:09;;;;;;;7.28;5.47;;;13.60;99.90;;;12.64;94.82;101878.41;4959333;28;20034;-75
2023/09/03 00:55:37;;;;;;;12.68;6.03;;;13.60;99.90;;;12.61;94.58;101867.94;4957126;28;20038;-75
2023/09/03 00:58:06;;;;;;;16.15;6.28;;;13.60;99.90;;;12.58;95.40;101862.78;4956499;28;20029;-75
2023/09/03 01:00:33;;;;;;;9.93;5.85;;;13.50;99.90;;;12.56;95.25;101864.63;4972014;28;20385;-75
2023/09/03 01:03:00;;;;;;;10.48;6.10;;;13.50;99.90;;;12.54;95.69;101869.09;4990102;28;20037;-75
2023/09/03 01:05:26;;;;;;;10.20;5.93;;;13.50;99.90;;;12.48;95.85;101857.84;4965907;28;20064;-75
2023/09/03 01:07:53;;;;;;;10.98;6.40;;;13.50;99.90;;;12.47;95.72;101861.38;4957556;28;20042;-75
2023/09/03 01:10:24;;;;;;;13.50;7.38;;;13.50;99.90;;;12.47;96.98;101858.75;4955971;28;20041;-75
2023/09/03 01:13:33;;;;;;;14.07;7.28;;;13.40;99.90;;;12.48;97.83;101862.25;4973699;28;20031;-75
2023/09/03 01:16:07;;;;;;;17.80;8.35;;;13.40;99.90;;;12.46;98.49;101862.31;4906728;29;20044;-75
2023/09/03 01:18:33;;;;;;;13.52;7.30;;;13.50;99.90;;;12.46;98.51;101872.00;4895616;29;20146;-75
2023/09/03 01:21:29;;;;;;;18.25;8.93;;;13.50;99.90;;;12.48;99.53;101871.06;4909964;29;20491;-75
2023/09/03 01:24:14;;;;;;;16.88;8.93;;;13.50;99.90;;;12.48;99.64;101878.97;4909896;29;20036;-75
2023/09/03 01:27:06;;;;;;;13.63;9.07;;;13.50;99.90;;;12.49;100.00;101875.41;4910923;29;20084;-75
2023/09/03 01:29:32;;;;;;;21.02;9.93;;;13.50;99.90;;;12.49;100.00;101864.84;4893566;29;20036;-75
2023/09/03 01:32:00;;;;;;;14.27;8.40;;;13.50;99.90;;;12.52;100.00;101863.84;4910138;29;20091;-75
2023/09/03 01:34:27;;;;;;;14.80;9.13;;;13.50;99.90;;;12.55;100.00;101857.59;4908510;29;20127;-75
2023/09/03 01:36:53;;;;;;;19.90;9.88;;;13.50;99.90;;;12.58;100.00;101863.63;4910742;29;20063;-75
2023/09/03 01:39:20;;;;;;;21.27;9.85;;;13.60;99.90;;;12.60;100.00;101866.22;4910170;29;20036;-75
2023/09/03 01:41:46;;;;;;;16.60;8.38;;;13.60;99.90;;;12.61;100.00;101862.66;4892745;29;20172;-75
2023/09/03 01:44:12;;;;;;;16.38;9.38;;;13.60;99.90;;;12.63;100.00;101860.81;4909524;29;20061;-75
2023/09/03 01:46:56;;;;;;;15.43;9.50;;;13.60;99.90;;;12.64;100.00;101867.84;4909566;29;20131;-75
2023/09/03 01:49:49;;;;;;;13.63;8.63;;;13.60;99.90;;;12.63;100.00;101866.94;4908209;29;20099;-75
2023/09/03 01:52:38;;;;;;;11.55;8.00;;;13.60;99.90;;;12.63;100.00;101858.16;4919203;28;20054;-75
2023/09/03 01:55:10;;;;;;;15.15;8.65;;;13.60;99.90;;;12.63;100.00;101858.16;4958267;28;20026;-75
2023/09/03 01:57:51;;;;;;;15.35;8.88;;;13.60;99.90;;;12.64;100.00;101852.00;4972445;28;20027;-75
2023/09/03 02:00:18;;;;;;;15.30;9.85;;;13.60;99.90;;;12.64;100.00;101852.00;4971552;28;20035;-75
2023/09/03 02:02:50;;;;;;;18.00;10.35;;;13.60;99.90;;;12.62;100.00;101861.75;4974884;28;20030;-75
2023/09/03 02:05:16;;;;;;;18.42;10.80;;;13.60;99.90;;;12.62;100.00;101856.47;4970425;28;20440;-75
2023/09/03 02:07:42;;;;;;;16.35;10.88;;;13.60;99.90;;;12.63;100.00;101866.09;4973292;28;20073;-76
2023/09/03 02:10:09;;;;;;;25.08;11.43;;;13.60;99.90;;;12.65;100.00;101853.69;4972537;28;20027;-75
2023/09/03 02:12:35;;;;;;;18.95;10.43;;;13.70;99.90;;;12.69;100.00;101855.31;4971302;28;20488;-75
2023/09/03 02:15:00;;;;;;;22.05;10.60;;;13.70;99.90;;;12.73;100.00;101859.56;4971494;28;20052;-75
2023/09/03 02:17:26;;;;;;;18.67;10.15;;;13.80;99.90;;;12.78;100.00;101860.25;4963342;28;20027;-75
2023/09/03 02:19:54;;;;;;;20.45;9.93;;;13.80;99.90;;;12.85;100.00;101864.41;4955894;28;20173;-75
2023/09/03 02:22:20;;;;;;;18.45;9.30;;;13.90;99.90;;;12.90;100.00;101862.44;4974912;28;20523;-75
2023/09/03 02:24:46;;;;;;;23.35;8.90;;;13.90;99.90;;;12.97;100.00;101862.19;4992696;28;20112;-75
2023/09/03 02:27:12;;;;;;;18.70;9.77;;;14.00;99.90;;;13.03;100.00;101868.09;4978499;28;20029;-76
2023/09/03 02:29:39;;;;;;;22.95;9.80;;;14.00;99.90;;;13.04;100.00;101875.09;4976063;28;20080;-75
2023/09/03 02:32:06;;;;;;;16.67;8.70;;;14.00;99.90;;;13.05;100.00;101878.63;4976373;28;20467;-75
2023/09/03 02:34:32;;;;;;;21.58;8.90;;;14.00;99.90;;;13.05;100.00;101884.78;4958948;28;20034;-75
2023/09/03 02:36:57;;;;;;;15.50;8.27;;;14.00;99.90;;;13.09;100.00;101888.16;4975777;28;20105;-75
2023/09/03 02:39:23;;;;;;;16.80;8.40;;;14.10;99.90;;;13.10;100.00;101882.81;4976780;28;20463;-75
2023/09/03 02:41:49;;;;;;;18.52;9.30;;;14.10;99.90;;;13.12;100.00;101873.03;4977157;28;20038;-75
2023/09/03 02:44:15;;;;;;;25.98;8.02;;;14.10;99.90;;;13.13;100.00;101881.81;4975989;28;20551;-75
2023/09/03 02:46:40;;;;;;;13.93;8.60;;;14.10;99.90;;;13.16;100.00;101886.16;4991168;28;20060;-75
2023/09/03 02:49:07;;;;;;;21.95;8.60;;;14.10;99.90;;;13.15;100.00;101872.03;4977068;28;20077;-75
2023/09/03 02:51:33;;;;;;;16.08;8.32;;;14.10;99.90;;;13.16;100.00;101873.78;4992614;28;20058;-75
2023/09/03 02:53:59;;;;;;;19.27;9.65;;;14.10;99.90;;;13.16;100.00;101871.13;4959698;28;20041;-75
2023/09/03 02:56:24;;;;;;;18.70;9.68;;;14.10;99.90;;;13.15;100.00;101885.25;4975935;28;20022;-75
2023/09/03 02:58:51;;;;;;;20.15;9.52;;;14.10;99.90;;;13.12;100.00;101890.69;4975278;28;20038;-75
2023/09/03 03:01:20;;;;;;;19.58;8.70;;;14.10;99.90;;;13.11;100.00;101879.25;4976813;28;20041;-75
2023/09/03 03:03:46;;;;;;;16.77;8.73;;;14.10;99.90;;;13.12;100.00;101864.25;4973782;28;20030;-75
2023/09/03 03:06:13;;;;;;;17.63;9.55;;;14.10;99.90;;;13.14;100.00;101865.03;4976096;28;20064;-75
2023/09/03 03:08:38;;;;;;;14.75;8.88;;;14.10;99.90;;;13.14;100.00;101868.53;4975768;28;20571;-75
2023/09/03 03:11:09;;;;;;;17.23;9.43;;;14.10;99.90;;;13.14;100.00;101867.69;4974636;28;20050;-75
2023/09/03 03:13:35;;;;;;;18.92;9.88;;;14.10;99.90;;;13.16;100.00;101865.00;4991856;28;20038;-75
2023/09/03 03:16:09;;;;;;;17.60;9.35;;;14.10;99.90;;;13.16;100.00;101875.56;4976108;28;20484;-75
2023/09/03 03:18:37;;;;;;;20.95;11.50;;;14.10;99.90;;;13.10;100.00;101888.09;4974208;28;20027;-75
2023/09/03 03:21:10;;;;;;;24.48;11.10;;;14.10;99.90;;;13.08;100.00;101894.38;4991567;28;20121;-75
2023/09/03 03:23:37;;;;;;;15.70;10.23;;;14.00;99.90;;;12.98;100.00;101901.81;4958044;28;20112;-75
2023/09/03 03:26:04;;;;;;;30.95;11.25;;;13.90;99.90;;;12.88;100.00;101903.91;4977369;28;20033;-75
2023/09/03 03:28:32;;;;;;;30.52;11.68;;;13.90;99.90;;;12.76;100.00;101914.06;4973726;28;20500;-75
2023/09/03 03:31:11;;;;;;;18.10;9.90;;;13.80;99.90;;;12.63;100.00;101917.16;4975622;28;20030;-75
2023/09/03 03:33:41;;;;;;;22.45;11.40;;;13.70;99.90;;;12.58;100.00;101916.47;4974176;28;20069;-75
2023/09/03 03:36:16;;;;;;;17.52;10.60;;;13.60;99.90;;;12.54;100.00;101922.78;4956750;28;20037;-75
2023/09/03 03:38:43;;;;;;;19.10;11.27;;;13.60;99.90;;;12.51;100.00;101921.13;4961011;28;20037;-75
2023/09/03 03:41:17;;;;;;;15.15;10.57;;;13.60;99.90;;;12.52;100.00;101916.69;4974343;28;20370;-75
2023/09/03 03:43:45;;;;;;;22.88;11.02;;;13.60;99.90;;;12.52;100.00;101929.91;4966604;28;20089;-75
2023/09/03 03:46:14;;;;;;;18.67;11.77;;;13.60;99.90;;;12.51;100.00;101931.69;4989727;28;20509;-75
2023/09/03 03:48:40;;;;;;;22.95;12.15;;;13.60;99.90;;;12.54;100.00;101930.72;4973442;28;20104;-75
2023/09/03 03:51:06;;;;;;;19.63;11.65;;;13.60;99.90;;;12.55;100.00;101927.16;4957916;28;20036;-75
2023/09/03 03:53:32;;;;;;;24.65;11.15;;;13.60;99.90;;;12.59;100.00;101930.53;4991140;28;21002;-75
2023/09/03 03:56:07;;;;;;;25.23;12.25;;;13.60;99.90;;;12.60;100.00;101930.50;4972500;28;20034;-76
2023/09/03 03:58:35;;;;;;;22.05;12.27;;;13.70;99.90;;;12.63;100.00;101929.50;4955829;28;20026;-75
2023/09/03 04:01:17;;;;;;;24.70;12.35;;;13.70;99.90;;;12.66;100.00;101926.78;4959497;28;20019;-75
2023/09/03 04:03:45;;;;;;;25.55;11.60;;;13.70;99.90;;;12.70;100.00;101925.75;4975790;28;20030;-75
2023/09/03 04:06:11;;;;;;;30.20;12.60;;;13.70;99.90;;;12.73;100.00;101917.69;4974171;28;20112;-75
2023/09/03 04:08:38;;;;;;;26.13;11.93;;;13.70;99.90;;;12.73;100.00;101921.19;4974259;28;20033;-76
2023/09/03 04:11:09;;;;;;;21.55;11.57;;;13.70;99.90;;;12.71;100.00;101924.81;4974110;28;20587;-75
2023/09/03 04:13:36;;;;;;;23.92;10.57;;;13.70;99.90;;;12.69;100.00;101926.66;4975982;28;20505;-75
2023/09/03 04:16:18;;;;;;;25.42;10.35;;;13.70;99.90;;;12.66;100.00;101934.72;4955384;28;20034;-75
2023/09/03 04:18:45;;;;;;;20.95;10.02;;;13.70;99.90;;;12.62;100.00;101922.53;4958998;28;20510;-75
2023/09/03 04:21:11;;;;;;;29.35;11.40;;;13.60;99.90;;;12.58;100.00;101931.47;4957077;28;20042;-76
2023/09/03 04:23:37;;;;;;;24.70;10.07;;;13.60;99.90;;;12.56;100.00;101930.66;4972571;28;20030;-75
2023/09/03 04:26:04;;;;;;;19.17;9.60;;;13.60;99.90;;;12.53;100.00;101926.34;4989721;28;20038;-75
2023/09/03 04:28:31;;;;;;;21.50;8.60;;;13.60;99.90;;;12.50;100.00;101934.38;4958570;28;20511;-75
2023/09/03 04:31:07;;;;;;;16.48;8.30;;;13.50;99.90;;;12.53;100.00;101929.00;4957532;28;20035;-75
2023/09/03 04:33:35;;;;;;;26.02;9.40;;;13.60;99.90;;;12.57;100.00;101925.34;4973715;28;20531;-75
2023/09/03 04:36:03;;;;;;;21.23;10.32;;;13.60;99.90;;;12.59;100.00;101928.78;4976276;28;20164;-75
2023/09/03 04:38:29;;;;;;;21.80;9.80;;;13.50;99.90;;;12.58;100.00;101939.41;4972618;28;20117;-75
2023/09/03 04:40:56;;;;;;;25.80;9.75;;;13.60;99.90;;;12.58;100.00;101926.19;4972279;28;20038;-75
2023/09/03 04:43:23;;;;;;;22.23;10.68;;;13.60;99.90;;;12.59;100.00;101915.56;4972592;28;20042;-75
2023/09/03 04:45:51;;;;;;;29.08;12.30;;;13.60;99.90;;;12.62;100.00;101917.25;4972041;28;20035;-75
2023/09/03 04:48:18;;;;;;;24.30;10.07;;;13.60;99.90;;;12.63;100.00;101919.81;4976285;28;20489;-75
2023/09/03 04:50:45;;;;;;;17.42;9.75;;;13.60;99.90;;;12.67;100.00;101920.56;4957004;28;20424;-76
2023/09/03 04:53:14;;;;;;;25.27;9.88;;;13.70;99.90;;;12.71;100.00;101923.03;4973091;28;20030;-75
2023/09/03 04:55:41;;;;;;;24.13;11.38;;;13.70;99.90;;;12.75;100.00;101930.88;4973397;28;20053;-75
2023/09/03 04:58:07;;;;;;;22.13;10.35;;;13.70;99.90;;;12.78;100.00;101926.31;4973315;28;20081;-75
2023/09/03 05:00:33;;;;;;;18.92;9.90;;;13.80;99.90;;;12.82;100.00;101935.00;4958937;28;20063;-75
2023/09/03 05:03:01;;;;;;;27.00;11.55;;;13.80;99.90;;;12.84;100.00;101922.59;4958630;28;20035;-75
2023/09/03 05:05:26;;;;;;;18.15;11.23;;;13.80;99.90;;;12.87;100.00;101922.47;4973477;28;20064;-75
2023/09/03 05:07:52;;;;;;;20.20;11.18;;;13.80;99.90;;;12.89;100.00;101942.66;4989859;28;20046;-75
2023/09/03 05:10:18;;;;;;;23.00;10.27;;;13.80;99.90;;;12.91;100.00;101961.97;4955723;28;20404;-75
2023/09/03 05:12:44;;;;;;;20.70;9.18;;;13.90;99.90;;;12.93;100.00;101967.19;4974078;28;20038;-75
2023/09/03 05:15:13;;;;;;;25.92;10.23;;;13.90;99.90;;;12.97;100.00;101965.31;4971722;28;20481;-75
2023/09/03 05:17:40;;;;;;;29.75;11.13;;;13.90;99.90;;;12.98;100.00;101965.25;4963284;28;20031;-75
2023/09/03 05:20:08;;;;;;;19.92;11.23;;;13.90;99.90;;;12.99;100.00;101979.31;4972726;28;20359;-75
2023/09/03 05:22:35;;;;;;;17.00;10.52;;;13.90;99.90;;;13.01;100.00;101982.78;4972247;28;20073;-75
2023/09/03 05:25:00;;;;;;;16.20;8.90;;;13.90;99.90;;;13.05;100.00;101994.97;4958134;28;20031;-75
2023/09/03 05:27:29;;;;;;;21.90;10.05;;;14.00;99.90;;;13.11;100.00;102010.63;4956743;28;20066;-75
2023/09/03 05:29:55;;;;;;;20.38;9.18;;;14.10;99.90;;;13.19;100.00;102008.53;4972346;28;20540;-75
2023/09/03 05:32:21;;;;;;;18.02;8.50;;;14.10;99.90;;;13.30;100.00;102003.75;4954607;28;20081;-75
2023/09/03 05:34:46;;;;;;;15.15;7.88;;;14.20;99.90;;;13.43;100.00;101997.97;4973529;28;20090;-75
2023/09/03 05:37:13;;;;;;;14.05;7.38;;;14.30;99.90;;;13.59;100.00;101991.19;4974355;28;20104;-75
2023/09/03 05:39:39;;;;;;;17.08;6.13;;;14.40;99.90;;;13.73;100.00;101990.63;4973351;28;20029;-75
2023/09/03 05:42:04;;;;;;;15.63;6.43;;;14.50;99.90;;;13.81;100.00;101995.63;4971198;28;20038;-75
2023/09/03 05:44:30;;;;;;;16.00;6.75;;;14.70;99.90;;;14.00;100.00;101991.31;4955174;28;20120;-75
2023/09/03 05:46:56;;;;;;;15.85;5.75;;;14.80;99.90;;;14.23;100.00;101992.13;4972801;28;20053;-76
2023/09/03 05:49:22;;;;;;;13.85;5.55;;;15.00;99.90;;;14.51;100.00;102003.31;4974292;28;20401;-75
2023/09/03 05:51:47;;;;;;;12.63;5.88;;;15.20;99.90;;;14.85;100.00;102007.16;4972504;28;20027;-75
2023/09/03 05:54:13;;;;;;;14.95;5.50;;;15.50;99.90;;;15.43;100.00;102011.63;4955069;28;20508;-75
2023/09/03 05:56:39;;;;;;;10.40;4.97;;;16.00;99.90;;;17.27;96.06;102024.63;4952705;28;20138;-75
2023/09/03 05:59:10;;;;;;;12.48;4.40;;;17.10;99.90;;;20.08;80.92;102022.00;4974416;28;20027;-75
2023/09/03 06:01:36;;;;;;;7.63;3.20;;;18.20;99.90;;;20.84;73.37;102030.31;4988631;28;20038;-75
2023/09/03 06:04:04;;;;;;;8.90;3.50;;;18.90;99.90;;;20.90;71.09;102040.59;4963975;28;20155;-75
2023/09/03 06:06:38;;;;;;;9.98;3.22;;;19.40;99.90;;;21.33;69.58;102045.59;4955796;28;20045;-75
2023/09/03 06:09:05;;;;;;;9.40;2.63;;;19.90;99.90;;;21.65;67.86;102054.03;4972478;28;20444;-75
2023/09/03 06:11:32;;;;;;;8.80;2.55;;;20.20;99.90;;;22.16;66.08;102055.69;4974890;28;20556;-75
2023/09/03 06:13:58;;;;;;;11.05;2.70;;;20.70;99.90;;;22.51;65.27;102060.25;4956515;28;20030;-75
2023/09/03 06:16:24;;;;;;;7.78;2.25;;;21.00;99.90;;;22.19;65.16;102076.06;4986824;28;20045;-75
2023/09/03 06:18:50;;;;;;;8.43;2.33;;;21.10;99.90;;;21.41;65.92;102075.44;4971793;28;20496;-75
2023/09/03 06:21:16;;;;;;;7.20;2.13;;;20.80;99.90;;;20.26;67.79;102078.78;5015691;22;20046;-75
2023/09/03 06:23:41;;;;;;;7.68;2.33;;;20.30;99.90;;;19.53;69.37;102064.81;4987445;28;20041;-75
2023/09/03 06:26:07;;;;;;;8.85;2.58;;;19.80;99.90;;;18.77;71.28;102057.88;4971747;28;20470;-75
2023/09/03 06:28:33;;;;;;;7.68;1.92;;;19.30;99.90;;;18.29;72.88;102063.31;4988122;28;20525;-75
2023/09/03 06:31:00;;;;;;;7.93;2.20;;;18.80;99.90;;;17.88;74.09;102055.03;4996139;28;20092;-75
2023/09/03 06:33:25;;;;;;;12.65;2.22;;;18.50;99.90;;;17.56;75.66;102065.66;4962952;28;20033;-75
2023/09/03 06:35:51;;;;;;;6.32;1.98;;;18.30;99.90;;;17.79;75.86;102056.38;4980618;28;20034;-75
2023/09/03 06:38:17;;;;;;;7.70;2.25;;;18.30;99.90;;;18.10;75.55;102062.66;4980872;28;20026;-75
2023/09/03 06:40:43;;;;;;;8.48;2.10;;;18.30;99.90;;;17.74;75.95;102066.44;4981027;28;20484;-75
2023/09/03 06:43:08;;;;;;;8.70;2.30;;;18.20;99.90;;;17.57;76.67;102062.03;4983088;28;20030;-75
2023/09/03 06:45:34;;;;;;;7.43;1.98;;;18.10;99.90;;;17.37;77.86;102068.44;4960599;28;20023;-75
2023/09/03 06:48:00;;;;;;;7.10;2.17;;;18.00;99.90;;;17.13;78.71;102067.97;4996511;28;20448;-75
2023/09/03 06:50:26;;;;;;;9.35;1.83;;;17.90;99.90;;;16.96;79.94;102071.50;4964206;28;20462;-75
2023/09/03 06:52:51;;;;;;;7.45;2.05;;;17.80;99.90;;;17.10;80.41;102073.44;4996978;28;20058;-75
2023/09/03 06:55:17;;;;;;;9.45;2.53;;;17.90;99.90;;;17.69;79.10;102085.34;4971366;28;20026;-75
2023/09/03 06:57:43;;;;;;;7.78;1.92;;;18.10;99.90;;;17.85;78.26;102087.19;4944531;28;20118;-76
2023/09/03 07:00:10;;;;;;;6.13;2.05;;;18.30;99.90;;;17.88;77.89;102081.66;4947750;29;20650;-75
2023/09/03 07:02:35;;;;;;;9.82;2.15;;;18.40;99.90;;;17.99;76.99;102077.47;4930067;28;20047;-75
2023/09/03 07:05:01;;;;;;;6.50;1.88;;;18.50;99.90;;;18.18;76.11;102079.91;4930707;29;20128;-75
2023/09/03 07:07:27;;;;;;;7.93;1.80;;;18.70;99.90;;;18.79;74.37;102090.66;4915453;29;20490;-75
2023/09/03 07:09:54;;;;;;;4.20;1.70;;;19.10;99.90;;;19.97;71.43;102111.91;4934946;29;20170;-75
2023/09/03 07:12:20;;;;;;;7.43;1.65;;;19.90;99.90;;;21.56;67.55;102132.44;4932592;29;20039;-75
2023/09/03 07:14:48;;;;;;;6.80;1.88;;;21.40;99.90;;;24.81;60.29;102159.28;4915906;28;20080;-75
2023/09/03 07:17:14;;;;;;;7.60;1.65;;;23.80;99.90;;;27.83;53.11;102184.16;4935121;29;20449;-76
2023/09/03 07:19:39;;;;;;;6.68;1.75;;;26.30;99.90;;;29.64;49.18;102201.13;4950675;28;20059;-75
2023/09/03 07:22:05;;;;;;;5.43;1.70;;;28.10;99.90;;;29.98;46.97;102211.16;4916541;29;20039;-75
2023/09/03 07:24:31;;;;;;;5.47;1.38;;;28.80;99.90;;;28.81;47.51;102212.41;4950317;28;20074;-76
2023/09/03 07:26:56;;;;;;;6.13;1.67;;;28.30;98.50;;;27.32;49.18;102210.69;4917353;29;20020;-75
2023/09/03 07:29:22;;;;;;;5.93;1.23;;;27.30;99.20;;;25.66;51.66;102189.75;4961599;28;20038;-76
2023/09/03 07:31:48;;;;;;;8.27;1.70;;;26.30;99.90;;;24.94;53.82;102172.56;4966113;28;20655;-75
2023/09/03 07:34:14;;;;;;;5.30;1.67;;;25.40;99.90;;;24.25;54.92;102165.69;4966353;28;20026;-75
2023/09/03 07:36:40;;;;;;;8.13;1.70;;;24.80;99.90;;;23.93;55.60;102157.53;4982227;28;20582;-75
2023/09/03 07:39:10;;;;;;;9.57;1.95;;;24.40;99.90;;;23.88;55.62;102151.69;4984011;28;20077;-75
2023/09/03 07:41:37;;;;;;;4.72;1.23;;;24.80;99.90;;;26.15;52.70;102191.66;4983526;28;20025;-75
2023/09/03 07:44:03;;;;;;;5.65;1.13;;;26.00;99.90;;;27.39;49.37;102209.09;4980730;28;20038;-75
2023/09/03 07:46:30;;;;;;;6.97;1.10;;;26.90;99.90;;;27.40;48.26;102216.22;4982093;28;20069;-75
2023/09/03 07:48:56;;;;;;;9.02;1.40;;;27.20;98.70;;;26.24;49.38;102221.53;4972669;28;20042;-75
2023/09/03 07:51:21;;;;;;;4.05;0.95;;;26.70;98.70;;;25.93;49.59;102225.13;5000761;28;20076;-75
2023/09/03 07:53:48;;;;;;;3.53;0.85;;;26.70;98.30;;;26.28;48.56;102231.06;4982813;28;20436;-75
2023/09/03 07:56:17;;;;;;;5.15;0.85;;;26.90;98.30;;;26.83;48.29;102250.41;4983326;28;20130;-75
2023/09/03 07:58:44;;;;;;;4.75;1.10;;;27.20;97.40;;;26.64;47.73;102251.22;4967152;28;20084;-75
2023/09/03 08:01:11;;;;;;;6.25;1.00;;;27.20;96.40;;;26.67;47.33;102252.78;4982958;28;20038;-75
2023/09/03 08:03:39;;;;;;;4.57;0.90;;;27.50;96.90;;;26.93;47.20;102261.19;4975411;28;20105;-75
2023/09/03 08:06:06;;;;;;;4.90;1.15;;;27.80;97.20;;;27.16;47.28;102246.41;4980616;28;20108;-75
2023/09/03 08:08:32;;;;;;;5.38;1.08;;;27.90;97.10;;;27.19;46.81;102253.34;4983283;28;20034;-75
2023/09/03 08:10:58;;;;;;;6.18;1.20;;;27.90;97.80;;;27.30;45.66;102263.19;4982763;28;20054;-75
2023/09/03 08:13:24;;;;;;;4.82;1.00;;;28.20;96.20;;;27.60;45.66;102273.84;4982593;28;20476;-75
2023/09/03 08:15:50;;;;;;;3.00;1.00;;;27.80;95.10;;;26.21;47.34;102260.47;4968560;28;20033;-75
2023/09/03 08:18:16;;;;;;;5.93;1.35;;;27.40;96.00;;;26.18;47.41;102255.34;4983836;28;20141;-75
2023/09/03 08:20:42;;;;;;;6.80;1.58;;;27.10;95.20;;;25.87;47.28;102258.00;4981020;28;20103;-75
2023/09/03 08:23:13;;;;;;;4.15;0.93;;;26.80;94.50;;;25.50;47.21;102250.44;4983360;28;20526;-75
2023/09/03 08:25:39;;;;;;;3.90;1.10;;;26.60;95.80;;;25.31;47.83;102247.59;4982982;28;20511;-75
2023/09/03 08:28:07;;;;;;;5.35;0.90;;;26.40;96.10;;;25.64;47.30;102253.75;4981542;28;20695;-75
2023/09/03 08:30:32;;;;;;;3.20;0.90;;;26.60;95.00;;;25.97;46.12;102268.91;5000273;28;20040;-75
2023/09/03 08:32:58;;;;;;;3.33;1.10;;;26.60;94.80;;;25.47;47.00;102266.88;4999922;28;20504;-75
2023/09/03 08:35:24;;;;;;;3.80;1.10;;;26.40;95.30;;;25.49;46.83;102264.06;4962821;28;20030;-75
2023/09/03 08:37:50;;;;;;;2.92;0.75;;;26.50;95.20;;;25.94;46.34;102274.53;4982754;28;20033;-75
2023/09/03 08:40:17;;;;;;;9.50;1.20;;;27.00;95.90;;;26.43;45.54;102283.69;4982823;28;20046;-75
2023/09/03 08:42:46;;;;;;;6.13;1.20;;;27.10;94.90;;;26.40;45.38;102278.59;4981752;28;20033;-75
2023/09/03 08:45:13;;;;;;;3.13;0.88;;;27.00;95.10;;;25.94;46.73;102272.72;4961891;28;20042;-75
2023/09/03 08:47:43;;;;;;;3.63;0.90;;;26.60;95.50;;;25.41;47.56;102266.56;4963165;28;20045;-75
2023/09/03 08:50:10;;;;;;;4.88;0.95;;;26.10;94.60;;;24.76;47.37;102263.88;4981571;28;20033;-75
2023/09/03 08:52:38;;;;;;;6.88;1.02;;;25.50;95.70;;;24.34;48.49;102266.34;4999253;28;20022;-75
2023/09/03 08:55:05;;;;;;;3.45;1.13;;;25.10;95.70;;;24.00;48.02;102260.16;4998009;28;20039;-75
2023/09/03 08:57:34;;;;;;;2.45;0.68;;;24.80;96.30;;;23.97;48.39;102253.16;4982888;28;20480;-75
2023/09/03 09:00:01;;;;;;;2.75;0.68;;;24.70;97.00;;;24.07;48.88;102248.78;4982405;28;20044;-75
2023/09/03 09:02:28;;;;;;;4.50;0.98;;;24.50;98.20;;;24.02;49.81;102242.91;4999388;28;20030;-74
2023/09/03 09:04:54;;;;;;;3.25;0.90;;;24.50;97.70;;;23.98;48.90;102244.13;4980863;28;20536;-75
2023/09/03 09:07:23;;;;;;;4.13;0.70;;;24.20;96.60;;;23.36;49.20;102249.88;4980324;28;20037;-74
2023/09/03 09:09:52;;;;;;;4.32;0.73;;;23.90;97.80;;;23.05;50.12;102223.53;4981878;28;20125;-75
2023/09/03 09:12:27;;;;;;;3.05;0.70;;;23.60;97.50;;;22.63;50.44;102224.88;4981535;28;20077;-75
2023/09/03 09:15:03;;;;;;;4.10;1.00;;;23.40;98.40;;;22.56;51.36;102216.41;4980136;28;20026;-75
2023/09/03 09:17:45;;;;;;;6.28;1.23;;;23.40;99.20;;;22.79;51.73;102219.25;4960308;28;20042;-74
2023/09/03 09:20:14;;;;;;;2.78;0.88;;;23.40;99.70;;;22.83;51.90;102215.31;4966395;28;20030;-75
2023/09/03 09:22:50;;;;;;;4.03;0.80;;;23.20;99.00;;;22.59;51.63;102224.28;4979639;28;20057;-75
2023/09/03 09:25:22;;;;;;;4.32;1.05;;;23.20;98.70;;;22.62;51.25;102225.88;4981924;28;20089;-74
2023/09/03 09:27:49;;;;;;;5.88;1.27;;;23.20;99.30;;;22.61;51.91;102222.28;4966497;28;20049;-74
2023/09/03 09:30:30;;;;;;;5.25;0.90;;;23.30;99.10;;;22.90;51.24;102230.03;4980126;28;20116;-74
2023/09/03 09:33:25;;;;;;;4.63;0.80;;;23.20;99.60;;;22.42;51.88;102220.13;4963508;28;20036;-75
2023/09/03 09:35:57;;;;;;;4.47;0.70;;;23.20;99.80;;;22.67;52.55;102212.94;4980973;28;20038;-75
2023/09/03 09:38:38;;;;;;;4.32;0.98;;;23.30;99.90;;;23.03;52.46;102219.25;4980173;28;20496;-75
2023/09/03 09:41:26;;;;;;;8.05;1.50;;;23.50;99.90;;;23.20;52.31;102220.66;4979400;28;20054;-74
2023/09/03 09:43:53;;;;;;;6.38;1.13;;;23.70;99.90;;;23.46;51.63;102226.69;4981550;28;20050;-74
2023/09/03 09:46:33;;;;;;;3.40;1.00;;;24.00;98.00;;;23.65;50.34;102242.22;4980231;28;20049;-75
2023/09/03 09:49:01;;;;;;;5.40;1.15;;;24.00;98.70;;;23.58;50.67;102241.00;4978718;28;20084;-75
2023/09/03 09:51:31;;;;;;;4.13;1.05;;;23.90;97.70;;;23.17;50.61;102242.38;4980253;28;20042;-74
2023/09/03 09:54:04;;;;;;;4.90;0.80;;;23.80;99.00;;;23.10;51.27;102234.75;4998838;28;20037;-74
2023/09/03 09:56:34;;;;;;;3.83;1.00;;;23.60;98.50;;;22.86;51.02;102224.03;4997297;28;20068;-75
2023/09/03 09:59:01;;;;;;;5.47;0.90;;;23.40;99.80;;;22.76;52.69;102214.09;4982294;28;20045;-74
2023/09/03 10:01:45;;;;;;;3.10;1.08;;;23.50;99.10;;;22.55;51.44;102217.41;4964703;28;20208;-74
2023/09/03 10:04:29;;;;;;;3.72;1.23;;;23.30;99.90;;;22.64;52.38;102208.66;4981616;28;20528;-74
2023/09/03 10:06:55;;;;;;;2.97;1.10;;;23.20;99.90;;;22.40;52.83;102219.38;4997006;28;20037;-74
2023/09/03 10:09:24;;;;;;;2.72;1.10;;;23.10;99.90;;;22.30;53.50;102213.81;4979065;28;20082;-74
2023/09/03 10:11:50;;;;;;;5.15;0.82;;;22.90;99.90;;;22.19;53.57;102212.88;4982066;28;20385;-75